sensor_id;sensor_type;location;lat;lon;timestamp;temperature;humidity
2447;DHT22;26430;48.818;9.244;2023-05-16T00:01:04;13.10;99.90
2447;DHT22;26430;48.818;9.244;2023-05-16T00:03:30;13.00;99.90
2447;DHT22;26430;48.818;9.244;2023-05-16T00:05:56;13.00;99.90
2447;DHT22;26430;48.818;9.244;2023-05-16T00:08:22;13.00;99.90
2447;DHT22;26430;48.818;9.244;2023-05-16T00:10:47;13.00;99.90
2447;DHT22;26430;48.818;9.244;2023-05-16T00:13:13;13.00;99.90
2447;DHT22;26430;48.818;9.244;2023-05-16T00:15:39;13.00;99.90
2447;DHT22;26430;48.818;9.244;2023-05-16T00:18:05;13.00;99.90
2447;DHT22;26430;48.818;9.244;2023-05-16T00:20:30;12.90;99.90
2447;DHT22;26430;48.818;9.244;2023-05-16T00:22:56;13.00;99.90
2447;DHT22;26430;48.818;9.244;2023-05-16T00:25:25;13.00;99.90
2447;DHT22;26430;48.818;9.244;2023-05-16T00:27:51;13.00;99.90
2447;DHT22;26430;48.818;9.244;2023-05-16T00:30:16;12.90;99.90
2447;DHT22;26430;48.818;9.244;2023-05-16T00:32:42;13.00;99.90
2447;DHT22;26430;48.818;9.244;2023-05-16T00:35:08;12.90;99.90
2447;DHT22;26430;48.818;9.244;2023-05-16T00:37:36;12.90;99.90
2447;DHT22;26430;48.818;9.244;2023-05-16T00:40:02;12.90;99.90
2447;DHT22;26430;48.818;9.244;2023-05-16T00:42:29;12.90;99.90
2447;DHT22;26430;48.818;9.244;2023-05-16T00:44:55;12.90;99.90
2447;DHT22;26430;48.818;9.244;2023-05-16T00:47:21;12.90;99.90
2447;DHT22;26430;48.818;9.244;2023-05-16T00:49:46;12.80;99.90
2447;DHT22;26430;48.818;9.244;2023-05-16T00:52:12;12.90;99.90
2447;DHT22;26430;48.818;9.244;2023-05-16T00:54:38;12.80;99.90
2447;DHT22;26430;48.818;9.244;2023-05-16T00:57:04;12.80;99.90
2447;DHT22;26430;48.818;9.244;2023-05-16T00:59:31;12.80;99.90
2447;DHT22;26430;48.818;9.244;2023-05-16T01:01:57;12.70;99.90
2447;DHT22;26430;48.818;9.244;2023-05-16T01:04:23;12.70;99.90
2447;DHT22;26430;48.818;9.244;2023-05-16T01:06:50;12.70;99.90
2447;DHT22;26430;48.818;9.244;2023-05-16T01:09:16;12.70;99.90
2447;DHT22;26430;48.818;9.244;2023-05-16T01:15:05;12.70;99.90
2447;DHT22;26430;48.818;9.244;2023-05-16T01:23:03;12.60;99.90
2447;DHT22;26430;48.818;9.244;2023-05-16T01:25:51;12.60;99.90
2447;DHT22;26430;48.818;9.244;2023-05-16T01:28:21;12.50;99.90
2447;DHT22;26430;48.818;9.244;2023-05-16T01:30:49;12.60;99.90
2447;DHT22;26430;48.818;9.244;2023-05-16T01:33:15;12.50;99.90
2447;DHT22;26430;48.818;9.244;2023-05-16T01:39:04;12.80;99.90
2447;DHT22;26430;48.818;9.244;2023-05-16T01:41:49;13.00;99.90
2447;DHT22;26430;48.818;9.244;2023-05-16T01:44:30;13.00;99.90
2447;DHT22;26430;48.818;9.244;2023-05-16T01:46:58;13.00;99.90
2447;DHT22;26430;48.818;9.244;2023-05-16T01:49:33;13.00;99.90
2447;DHT22;26430;48.818;9.244;2023-05-16T01:52:04;13.00;99.90
2447;DHT22;26430;48.818;9.244;2023-05-16T01:54:31;13.00;99.90
2447;DHT22;26430;48.818;9.244;2023-05-16T01:56:58;13.00;99.90
2447;DHT22;26430;48.818;9.244;2023-05-16T01:59:25;13.10;99.90
2447;DHT22;26430;48.818;9.244;2023-05-16T02:01:56;13.20;99.90
2447;DHT22;26430;48.818;9.244;2023-05-16T02:04:22;13.20;99.90
2447;DHT22;26430;48.818;9.244;2023-05-16T02:06:49;13.20;99.90
2447;DHT22;26430;48.818;9.244;2023-05-16T02:09:15;13.20;99.90
2447;DHT22;26430;48.818;9.244;2023-05-16T02:11:41;13.20;99.90
2447;DHT22;26430;48.818;9.244;2023-05-16T02:14:06;13.10;99.90
2447;DHT22;26430;48.818;9.244;2023-05-16T02:16:32;12.90;99.90
2447;DHT22;26430;48.818;9.244;2023-05-16T02:18:58;12.80;99.90
2447;DHT22;26430;48.818;9.244;2023-05-16T02:21:23;12.90;99.90
2447;DHT22;26430;48.818;9.244;2023-05-16T02:23:49;12.80;99.90
2447;DHT22;26430;48.818;9.244;2023-05-16T02:26:15;12.70;99.90
2447;DHT22;26430;48.818;9.244;2023-05-16T02:28:41;12.70;99.90
2447;DHT22;26430;48.818;9.244;2023-05-16T02:31:06;12.60;99.90
2447;DHT22;26430;48.818;9.244;2023-05-16T02:33:32;12.70;99.90
2447;DHT22;26430;48.818;9.244;2023-05-16T02:35:58;12.90;99.90
2447;DHT22;26430;48.818;9.244;2023-05-16T02:38:24;12.80;99.90
2447;DHT22;26430;48.818;9.244;2023-05-16T02:40:50;12.90;99.90
2447;DHT22;26430;48.818;9.244;2023-05-16T02:43:15;12.90;99.90
2447;DHT22;26430;48.818;9.244;2023-05-16T02:45:41;12.90;99.90
2447;DHT22;26430;48.818;9.244;2023-05-16T02:48:07;12.80;99.90
2447;DHT22;26430;48.818;9.244;2023-05-16T02:50:33;12.70;99.90
2447;DHT22;26430;48.818;9.244;2023-05-16T02:52:58;12.70;99.90
2447;DHT22;26430;48.818;9.244;2023-05-16T02:55:27;12.60;99.90
2447;DHT22;26430;48.818;9.244;2023-05-16T02:57:52;12.70;99.90
2447;DHT22;26430;48.818;9.244;2023-05-16T03:00:18;12.70;99.90
2447;DHT22;26430;48.818;9.244;2023-05-16T03:02:44;12.70;99.90
2447;DHT22;26430;48.818;9.244;2023-05-16T03:05:10;12.80;99.90
2447;DHT22;26430;48.818;9.244;2023-05-16T03:07:36;12.80;99.90
2447;DHT22;26430;48.818;9.244;2023-05-16T03:10:02;12.80;99.90
2447;DHT22;26430;48.818;9.244;2023-05-16T03:12:28;12.90;99.90
2447;DHT22;26430;48.818;9.244;2023-05-16T03:14:54;12.90;99.90
2447;DHT22;26430;48.818;9.244;2023-05-16T03:17:19;13.00;99.90
2447;DHT22;26430;48.818;9.244;2023-05-16T03:19:45;13.10;99.90
2447;DHT22;26430;48.818;9.244;2023-05-16T03:22:11;13.00;99.90
2447;DHT22;26430;48.818;9.244;2023-05-16T03:24:36;12.90;99.90
2447;DHT22;26430;48.818;9.244;2023-05-16T03:27:02;13.00;99.90
2447;DHT22;26430;48.818;9.244;2023-05-16T03:29:29;12.80;99.90
2447;DHT22;26430;48.818;9.244;2023-05-16T03:31:55;12.80;99.90
2447;DHT22;26430;48.818;9.244;2023-05-16T03:34:20;12.90;99.90
2447;DHT22;26430;48.818;9.244;2023-05-16T03:36:50;12.90;99.90
2447;DHT22;26430;48.818;9.244;2023-05-16T03:39:16;12.70;99.90
2447;DHT22;26430;48.818;9.244;2023-05-16T03:41:42;12.60;99.90
2447;DHT22;26430;48.818;9.244;2023-05-16T03:44:08;12.50;99.90
2447;DHT22;26430;48.818;9.244;2023-05-16T03:46:34;12.50;99.90
2447;DHT22;26430;48.818;9.244;2023-05-16T03:49:00;12.40;99.90
2447;DHT22;26430;48.818;9.244;2023-05-16T03:51:25;12.30;99.90
2447;DHT22;26430;48.818;9.244;2023-05-16T03:53:51;12.30;99.90
2447;DHT22;26430;48.818;9.244;2023-05-16T03:56:17;12.50;99.90
2447;DHT22;26430;48.818;9.244;2023-05-16T03:58:42;12.60;99.90
2447;DHT22;26430;48.818;9.244;2023-05-16T04:01:08;12.80;99.90
2447;DHT22;26430;48.818;9.244;2023-05-16T04:03:33;12.80;99.90
2447;DHT22;26430;48.818;9.244;2023-05-16T04:05:59;12.80;99.90
2447;DHT22;26430;48.818;9.244;2023-05-16T04:08:25;12.70;99.90
2447;DHT22;26430;48.818;9.244;2023-05-16T04:10:50;12.60;99.90
2447;DHT22;26430;48.818;9.244;2023-05-16T04:13:16;12.70;99.90
2447;DHT22;26430;48.818;9.244;2023-05-16T04:15:42;12.70;99.90
2447;DHT22;26430;48.818;9.244;2023-05-16T04:18:08;12.80;99.90
2447;DHT22;26430;48.818;9.244;2023-05-16T04:20:34;12.80;99.90
2447;DHT22;26430;48.818;9.244;2023-05-16T04:23:00;12.90;99.90
2447;DHT22;26430;48.818;9.244;2023-05-16T04:25:26;13.00;99.90
2447;DHT22;26430;48.818;9.244;2023-05-16T04:27:51;13.00;99.90
2447;DHT22;26430;48.818;9.244;2023-05-16T04:30:17;12.80;99.90
2447;DHT22;26430;48.818;9.244;2023-05-16T04:32:43;12.70;99.90
2447;DHT22;26430;48.818;9.244;2023-05-16T04:35:09;12.70;99.90
2447;DHT22;26430;48.818;9.244;2023-05-16T04:37:34;12.80;99.90
2447;DHT22;26430;48.818;9.244;2023-05-16T04:40:00;12.90;99.90
2447;DHT22;26430;48.818;9.244;2023-05-16T04:42:26;12.80;99.90
2447;DHT22;26430;48.818;9.244;2023-05-16T04:44:52;12.80;99.90
2447;DHT22;26430;48.818;9.244;2023-05-16T04:47:17;12.80;99.90
2447;DHT22;26430;48.818;9.244;2023-05-16T04:49:43;13.00;99.90
2447;DHT22;26430;48.818;9.244;2023-05-16T04:52:09;13.00;99.90
2447;DHT22;26430;48.818;9.244;2023-05-16T04:54:36;12.90;99.90
2447;DHT22;26430;48.818;9.244;2023-05-16T04:57:02;13.00;99.90
2447;DHT22;26430;48.818;9.244;2023-05-16T04:59:28;13.10;99.90
2447;DHT22;26430;48.818;9.244;2023-05-16T05:01:53;13.10;99.90
2447;DHT22;26430;48.818;9.244;2023-05-16T05:04:19;13.20;99.90
2447;DHT22;26430;48.818;9.244;2023-05-16T05:06:44;13.30;99.90
2447;DHT22;26430;48.818;9.244;2023-05-16T05:09:10;13.40;99.90
2447;DHT22;26430;48.818;9.244;2023-05-16T05:11:36;13.50;99.90
2447;DHT22;26430;48.818;9.244;2023-05-16T05:14:01;13.60;99.90
2447;DHT22;26430;48.818;9.244;2023-05-16T05:16:28;13.60;99.90
2447;DHT22;26430;48.818;9.244;2023-05-16T05:18:53;13.70;99.90
2447;DHT22;26430;48.818;9.244;2023-05-16T05:21:19;13.70;99.90
2447;DHT22;26430;48.818;9.244;2023-05-16T05:23:45;13.60;99.90
2447;DHT22;26430;48.818;9.244;2023-05-16T05:26:11;13.70;99.90
2447;DHT22;26430;48.818;9.244;2023-05-16T05:28:36;13.60;99.90
2447;DHT22;26430;48.818;9.244;2023-05-16T05:31:03;13.60;99.90
2447;DHT22;26430;48.818;9.244;2023-05-16T05:33:29;13.50;99.90
2447;DHT22;26430;48.818;9.244;2023-05-16T05:35:55;13.70;99.90
2447;DHT22;26430;48.818;9.244;2023-05-16T05:38:21;13.70;99.90
2447;DHT22;26430;48.818;9.244;2023-05-16T05:40:47;13.70;99.90
2447;DHT22;26430;48.818;9.244;2023-05-16T05:43:14;13.60;99.90
2447;DHT22;26430;48.818;9.244;2023-05-16T05:45:39;13.50;99.90
2447;DHT22;26430;48.818;9.244;2023-05-16T05:48:05;13.50;99.90
2447;DHT22;26430;48.818;9.244;2023-05-16T05:50:31;13.50;99.90
2447;DHT22;26430;48.818;9.244;2023-05-16T05:52:57;13.50;99.90
2447;DHT22;26430;48.818;9.244;2023-05-16T05:55:22;13.60;99.90
2447;DHT22;26430;48.818;9.244;2023-05-16T05:57:48;13.70;99.90
2447;DHT22;26430;48.818;9.244;2023-05-16T06:00:14;13.60;99.90
2447;DHT22;26430;48.818;9.244;2023-05-16T06:02:39;13.30;99.90
2447;DHT22;26430;48.818;9.244;2023-05-16T06:05:06;13.30;99.90
2447;DHT22;26430;48.818;9.244;2023-05-16T06:07:31;13.40;99.90
2447;DHT22;26430;48.818;9.244;2023-05-16T06:09:57;13.50;99.90
2447;DHT22;26430;48.818;9.244;2023-05-16T06:12:22;13.60;99.90
2447;DHT22;26430;48.818;9.244;2023-05-16T06:14:48;13.60;99.90
2447;DHT22;26430;48.818;9.244;2023-05-16T06:17:13;13.70;99.90
2447;DHT22;26430;48.818;9.244;2023-05-16T06:19:39;13.80;99.90
2447;DHT22;26430;48.818;9.244;2023-05-16T06:22:04;13.90;99.90
2447;DHT22;26430;48.818;9.244;2023-05-16T06:24:30;13.80;99.90
2447;DHT22;26430;48.818;9.244;2023-05-16T06:26:55;13.80;99.90
2447;DHT22;26430;48.818;9.244;2023-05-16T06:29:21;13.80;99.90
2447;DHT22;26430;48.818;9.244;2023-05-16T06:31:47;13.80;99.90
2447;DHT22;26430;48.818;9.244;2023-05-16T06:34:12;13.90;99.90
2447;DHT22;26430;48.818;9.244;2023-05-16T06:36:38;13.80;99.90
2447;DHT22;26430;48.818;9.244;2023-05-16T06:39:03;13.90;99.90
2447;DHT22;26430;48.818;9.244;2023-05-16T06:41:29;13.90;99.90
2447;DHT22;26430;48.818;9.244;2023-05-16T06:43:55;14.00;99.90
2447;DHT22;26430;48.818;9.244;2023-05-16T06:46:21;14.10;99.90
2447;DHT22;26430;48.818;9.244;2023-05-16T06:48:46;14.20;99.90
2447;DHT22;26430;48.818;9.244;2023-05-16T06:51:12;14.30;99.90
2447;DHT22;26430;48.818;9.244;2023-05-16T06:53:38;14.40;99.90
2447;DHT22;26430;48.818;9.244;2023-05-16T06:56:04;14.50;99.90
2447;DHT22;26430;48.818;9.244;2023-05-16T06:58:29;14.40;99.90
2447;DHT22;26430;48.818;9.244;2023-05-16T07:00:55;14.30;99.90
2447;DHT22;26430;48.818;9.244;2023-05-16T07:03:21;14.30;99.90
2447;DHT22;26430;48.818;9.244;2023-05-16T07:05:46;14.30;99.90
2447;DHT22;26430;48.818;9.244;2023-05-16T07:08:12;14.20;99.90
2447;DHT22;26430;48.818;9.244;2023-05-16T07:10:38;14.30;99.90
2447;DHT22;26430;48.818;9.244;2023-05-16T07:13:04;14.40;99.90
2447;DHT22;26430;48.818;9.244;2023-05-16T07:15:29;14.30;99.90
2447;DHT22;26430;48.818;9.244;2023-05-16T07:17:55;14.10;99.90
2447;DHT22;26430;48.818;9.244;2023-05-16T07:20:21;14.30;99.90
2447;DHT22;26430;48.818;9.244;2023-05-16T07:22:47;14.50;99.90
2447;DHT22;26430;48.818;9.244;2023-05-16T07:25:13;14.20;99.90
2447;DHT22;26430;48.818;9.244;2023-05-16T07:27:40;14.30;99.90
2447;DHT22;26430;48.818;9.244;2023-05-16T07:30:13;14.30;99.90
2447;DHT22;26430;48.818;9.244;2023-05-16T07:32:39;14.30;99.90
2447;DHT22;26430;48.818;9.244;2023-05-16T07:35:05;14.30;99.90
2447;DHT22;26430;48.818;9.244;2023-05-16T07:37:31;14.20;99.90
2447;DHT22;26430;48.818;9.244;2023-05-16T07:39:56;14.10;99.90
2447;DHT22;26430;48.818;9.244;2023-05-16T07:42:22;14.20;99.90
2447;DHT22;26430;48.818;9.244;2023-05-16T07:44:47;14.20;99.90
2447;DHT22;26430;48.818;9.244;2023-05-16T07:47:13;14.20;99.90
2447;DHT22;26430;48.818;9.244;2023-05-16T07:49:39;14.10;99.90
2447;DHT22;26430;48.818;9.244;2023-05-16T07:52:04;14.10;99.90
2447;DHT22;26430;48.818;9.244;2023-05-16T07:54:31;14.00;99.90
2447;DHT22;26430;48.818;9.244;2023-05-16T07:56:57;14.10;99.90
2447;DHT22;26430;48.818;9.244;2023-05-16T07:59:23;14.20;99.90
2447;DHT22;26430;48.818;9.244;2023-05-16T08:01:49;14.20;99.90
2447;DHT22;26430;48.818;9.244;2023-05-16T08:04:14;14.00;99.90
2447;DHT22;26430;48.818;9.244;2023-05-16T08:06:40;14.00;99.90
2447;DHT22;26430;48.818;9.244;2023-05-16T08:09:05;14.10;99.90
2447;DHT22;26430;48.818;9.244;2023-05-16T08:11:31;14.00;99.90
2447;DHT22;26430;48.818;9.244;2023-05-16T08:13:57;14.10;99.90
2447;DHT22;26430;48.818;9.244;2023-05-16T08:16:22;14.20;99.90
2447;DHT22;26430;48.818;9.244;2023-05-16T08:18:48;14.20;99.90
2447;DHT22;26430;48.818;9.244;2023-05-16T08:21:13;14.30;99.90
2447;DHT22;26430;48.818;9.244;2023-05-16T08:23:40;14.30;99.90
2447;DHT22;26430;48.818;9.244;2023-05-16T08:26:06;14.40;99.90
2447;DHT22;26430;48.818;9.244;2023-05-16T08:28:32;14.30;99.90
2447;DHT22;26430;48.818;9.244;2023-05-16T08:30:58;14.30;99.90
2447;DHT22;26430;48.818;9.244;2023-05-16T08:33:23;14.30;99.90
2447;DHT22;26430;48.818;9.244;2023-05-16T08:35:50;14.30;99.90
2447;DHT22;26430;48.818;9.244;2023-05-16T08:38:17;14.20;99.90
2447;DHT22;26430;48.818;9.244;2023-05-16T08:40:42;14.20;99.90
2447;DHT22;26430;48.818;9.244;2023-05-16T08:43:08;14.10;99.90
2447;DHT22;26430;48.818;9.244;2023-05-16T08:45:34;14.20;99.90
2447;DHT22;26430;48.818;9.244;2023-05-16T08:48:00;14.10;99.90
2447;DHT22;26430;48.818;9.244;2023-05-16T08:50:30;14.20;99.90
2447;DHT22;26430;48.818;9.244;2023-05-16T08:52:56;14.20;99.90
2447;DHT22;26430;48.818;9.244;2023-05-16T08:55:22;14.10;99.90
2447;DHT22;26430;48.818;9.244;2023-05-16T08:57:49;14.00;99.90
2447;DHT22;26430;48.818;9.244;2023-05-16T09:00:17;13.90;99.90
2447;DHT22;26430;48.818;9.244;2023-05-16T09:02:43;14.00;99.90
2447;DHT22;26430;48.818;9.244;2023-05-16T09:05:14;14.00;99.90
2447;DHT22;26430;48.818;9.244;2023-05-16T09:07:40;14.00;99.90
2447;DHT22;26430;48.818;9.244;2023-05-16T09:10:06;13.90;99.90
2447;DHT22;26430;48.818;9.244;2023-05-16T09:12:36;13.90;99.90
2447;DHT22;26430;48.818;9.244;2023-05-16T09:15:03;13.80;99.90
2447;DHT22;26430;48.818;9.244;2023-05-16T09:20:13;13.90;99.90
2447;DHT22;26430;48.818;9.244;2023-05-16T09:22:39;13.90;99.90
2447;DHT22;26430;48.818;9.244;2023-05-16T09:25:06;13.90;99.90
2447;DHT22;26430;48.818;9.244;2023-05-16T09:27:31;13.90;99.90
2447;DHT22;26430;48.818;9.244;2023-05-16T09:29:58;14.10;99.90
2447;DHT22;26430;48.818;9.244;2023-05-16T09:32:24;14.10;99.90
2447;DHT22;26430;48.818;9.244;2023-05-16T09:34:52;14.10;99.90
2447;DHT22;26430;48.818;9.244;2023-05-16T09:37:19;14.10;99.90
2447;DHT22;26430;48.818;9.244;2023-05-16T09:39:52;14.20;99.90
2447;DHT22;26430;48.818;9.244;2023-05-16T09:42:19;14.20;99.90
2447;DHT22;26430;48.818;9.244;2023-05-16T09:44:47;14.40;99.90
2447;DHT22;26430;48.818;9.244;2023-05-16T09:47:17;14.60;99.90
2447;DHT22;26430;48.818;9.244;2023-05-16T09:49:44;14.80;99.90
2447;DHT22;26430;48.818;9.244;2023-05-16T09:52:09;14.90;99.90
2447;DHT22;26430;48.818;9.244;2023-05-16T09:54:35;14.90;99.90
2447;DHT22;26430;48.818;9.244;2023-05-16T09:57:01;15.00;99.90
2447;DHT22;26430;48.818;9.244;2023-05-16T09:59:34;15.10;99.90
2447;DHT22;26430;48.818;9.244;2023-05-16T10:02:00;15.30;99.90
2447;DHT22;26430;48.818;9.244;2023-05-16T10:04:25;15.30;99.90
2447;DHT22;26430;48.818;9.244;2023-05-16T10:06:54;15.30;99.90
2447;DHT22;26430;48.818;9.244;2023-05-16T10:09:22;15.30;99.90
2447;DHT22;26430;48.818;9.244;2023-05-16T10:11:50;15.10;99.90
2447;DHT22;26430;48.818;9.244;2023-05-16T10:14:17;15.00;99.90
2447;DHT22;26430;48.818;9.244;2023-05-16T10:16:45;14.90;99.90
2447;DHT22;26430;48.818;9.244;2023-05-16T10:19:12;14.80;99.90
2447;DHT22;26430;48.818;9.244;2023-05-16T10:21:39;14.80;99.90
2447;DHT22;26430;48.818;9.244;2023-05-16T10:24:10;14.90;99.90
2447;DHT22;26430;48.818;9.244;2023-05-16T10:26:36;15.00;99.90
2447;DHT22;26430;48.818;9.244;2023-05-16T10:29:02;14.90;99.90
2447;DHT22;26430;48.818;9.244;2023-05-16T10:31:28;14.70;99.90
2447;DHT22;26430;48.818;9.244;2023-05-16T10:33:56;14.80;99.90
2447;DHT22;26430;48.818;9.244;2023-05-16T10:36:22;14.70;99.90
2447;DHT22;26430;48.818;9.244;2023-05-16T10:38:48;14.80;99.90
2447;DHT22;26430;48.818;9.244;2023-05-16T10:41:14;14.90;99.90
2447;DHT22;26430;48.818;9.244;2023-05-16T10:43:43;14.90;99.90
2447;DHT22;26430;48.818;9.244;2023-05-16T10:46:11;14.80;99.90
2447;DHT22;26430;48.818;9.244;2023-05-16T10:48:40;14.70;99.90
2447;DHT22;26430;48.818;9.244;2023-05-16T10:53:47;14.50;99.90
2447;DHT22;26430;48.818;9.244;2023-05-16T10:56:22;14.40;99.90
2447;DHT22;26430;48.818;9.244;2023-05-16T10:58:48;14.40;99.90
2447;DHT22;26430;48.818;9.244;2023-05-16T11:14:27;14.10;99.90
2447;DHT22;26430;48.818;9.244;2023-05-16T11:19:47;14.00;99.90
2447;DHT22;26430;48.818;9.244;2023-05-16T11:29:49;13.60;99.90
2447;DHT22;26430;48.818;9.244;2023-05-16T11:32:19;13.60;99.90
2447;DHT22;26430;48.818;9.244;2023-05-16T11:34:46;13.70;99.90
2447;DHT22;26430;48.818;9.244;2023-05-16T11:37:12;13.60;99.90
2447;DHT22;26430;48.818;9.244;2023-05-16T11:39:39;13.70;99.90
2447;DHT22;26430;48.818;9.244;2023-05-16T11:42:05;13.60;99.90
2447;DHT22;26430;48.818;9.244;2023-05-16T11:44:30;13.60;99.90
2447;DHT22;26430;48.818;9.244;2023-05-16T11:46:56;13.60;99.90
2447;DHT22;26430;48.818;9.244;2023-05-16T11:49:22;13.60;99.90
2447;DHT22;26430;48.818;9.244;2023-05-16T11:51:48;13.50;99.90
2447;DHT22;26430;48.818;9.244;2023-05-16T11:54:17;13.50;99.90
2447;DHT22;26430;48.818;9.244;2023-05-16T11:56:43;13.40;99.90
2447;DHT22;26430;48.818;9.244;2023-05-16T11:59:09;13.30;99.90
2447;DHT22;26430;48.818;9.244;2023-05-16T12:01:37;13.30;99.90
2447;DHT22;26430;48.818;9.244;2023-05-16T12:04:10;13.30;99.90
2447;DHT22;26430;48.818;9.244;2023-05-16T12:06:37;13.30;99.90
2447;DHT22;26430;48.818;9.244;2023-05-16T12:09:04;13.30;99.90
2447;DHT22;26430;48.818;9.244;2023-05-16T12:11:38;13.50;99.90
2447;DHT22;26430;48.818;9.244;2023-05-16T12:14:05;13.50;99.90
2447;DHT22;26430;48.818;9.244;2023-05-16T12:16:31;13.50;99.90
2447;DHT22;26430;48.818;9.244;2023-05-16T12:18:58;13.50;99.90
2447;DHT22;26430;48.818;9.244;2023-05-16T12:21:24;13.50;99.90
2447;DHT22;26430;48.818;9.244;2023-05-16T12:23:54;13.60;99.90
2447;DHT22;26430;48.818;9.244;2023-05-16T12:26:27;13.70;99.90
2447;DHT22;26430;48.818;9.244;2023-05-16T12:28:58;13.80;99.90
2447;DHT22;26430;48.818;9.244;2023-05-16T12:31:28;13.90;99.90
2447;DHT22;26430;48.818;9.244;2023-05-16T12:33:55;13.80;99.90
2447;DHT22;26430;48.818;9.244;2023-05-16T12:36:22;13.80;99.90
2447;DHT22;26430;48.818;9.244;2023-05-16T12:38:48;13.70;99.90
2447;DHT22;26430;48.818;9.244;2023-05-16T12:41:18;13.70;99.90
2447;DHT22;26430;48.818;9.244;2023-05-16T12:43:44;13.70;99.90
2447;DHT22;26430;48.818;9.244;2023-05-16T12:46:10;13.70;99.90
2447;DHT22;26430;48.818;9.244;2023-05-16T12:48:39;13.80;99.90
2447;DHT22;26430;48.818;9.244;2023-05-16T12:51:13;13.90;99.90
2447;DHT22;26430;48.818;9.244;2023-05-16T12:53:44;13.90;99.90
2447;DHT22;26430;48.818;9.244;2023-05-16T12:56:11;13.90;99.90
2447;DHT22;26430;48.818;9.244;2023-05-16T12:58:38;14.00;99.90
2447;DHT22;26430;48.818;9.244;2023-05-16T13:01:04;14.10;99.90
2447;DHT22;26430;48.818;9.244;2023-05-16T13:03:30;14.20;99.90
2447;DHT22;26430;48.818;9.244;2023-05-16T13:05:57;14.20;99.90
2447;DHT22;26430;48.818;9.244;2023-05-16T13:08:23;14.20;99.90
2447;DHT22;26430;48.818;9.244;2023-05-16T13:10:49;14.10;99.90
2447;DHT22;26430;48.818;9.244;2023-05-16T13:13:15;14.10;99.90
2447;DHT22;26430;48.818;9.244;2023-05-16T13:15:41;13.90;99.90
2447;DHT22;26430;48.818;9.244;2023-05-16T13:18:08;13.90;99.90
2447;DHT22;26430;48.818;9.244;2023-05-16T13:20:33;13.80;99.90
2447;DHT22;26430;48.818;9.244;2023-05-16T13:22:59;13.60;99.90
2447;DHT22;26430;48.818;9.244;2023-05-16T13:25:24;13.50;99.90
2447;DHT22;26430;48.818;9.244;2023-05-16T13:27:50;13.50;99.90
2447;DHT22;26430;48.818;9.244;2023-05-16T13:30:16;13.40;99.90
2447;DHT22;26430;48.818;9.244;2023-05-16T13:32:41;13.40;99.90
2447;DHT22;26430;48.818;9.244;2023-05-16T13:35:07;13.60;99.90
2447;DHT22;26430;48.818;9.244;2023-05-16T13:37:34;13.60;99.90
2447;DHT22;26430;48.818;9.244;2023-05-16T13:40:00;13.40;99.90
2447;DHT22;26430;48.818;9.244;2023-05-16T13:42:26;13.40;99.90
2447;DHT22;26430;48.818;9.244;2023-05-16T13:44:51;13.50;99.90
2447;DHT22;26430;48.818;9.244;2023-05-16T13:47:17;13.40;99.90
2447;DHT22;26430;48.818;9.244;2023-05-16T13:49:42;13.50;99.90
2447;DHT22;26430;48.818;9.244;2023-05-16T13:52:08;13.50;99.90
2447;DHT22;26430;48.818;9.244;2023-05-16T13:54:34;13.60;99.90
2447;DHT22;26430;48.818;9.244;2023-05-16T13:56:59;13.60;99.90
2447;DHT22;26430;48.818;9.244;2023-05-16T13:59:26;13.50;99.90
2447;DHT22;26430;48.818;9.244;2023-05-16T14:01:52;13.50;99.90
2447;DHT22;26430;48.818;9.244;2023-05-16T14:04:17;13.40;99.90
2447;DHT22;26430;48.818;9.244;2023-05-16T14:06:43;13.50;99.90
2447;DHT22;26430;48.818;9.244;2023-05-16T14:09:08;13.50;99.90
2447;DHT22;26430;48.818;9.244;2023-05-16T14:11:35;13.60;99.90
2447;DHT22;26430;48.818;9.244;2023-05-16T14:14:00;13.60;99.90
2447;DHT22;26430;48.818;9.244;2023-05-16T14:16:26;13.60;99.90
2447;DHT22;26430;48.818;9.244;2023-05-16T14:18:51;13.50;99.90
2447;DHT22;26430;48.818;9.244;2023-05-16T14:21:17;13.70;99.90
2447;DHT22;26430;48.818;9.244;2023-05-16T14:23:42;13.60;99.90
2447;DHT22;26430;48.818;9.244;2023-05-16T14:26:08;13.70;99.90
2447;DHT22;26430;48.818;9.244;2023-05-16T14:28:34;13.60;99.90
2447;DHT22;26430;48.818;9.244;2023-05-16T14:31:00;13.80;99.90
2447;DHT22;26430;48.818;9.244;2023-05-16T14:33:26;13.80;99.90
2447;DHT22;26430;48.818;9.244;2023-05-16T14:35:52;13.70;99.90
2447;DHT22;26430;48.818;9.244;2023-05-16T14:38:18;13.80;99.90
2447;DHT22;26430;48.818;9.244;2023-05-16T14:40:44;13.80;99.90
2447;DHT22;26430;48.818;9.244;2023-05-16T14:43:09;13.90;99.90
2447;DHT22;26430;48.818;9.244;2023-05-16T14:45:36;13.80;99.90
2447;DHT22;26430;48.818;9.244;2023-05-16T14:48:02;13.80;99.90
2447;DHT22;26430;48.818;9.244;2023-05-16T14:50:28;13.90;99.90
2447;DHT22;26430;48.818;9.244;2023-05-16T14:52:54;13.90;99.90
2447;DHT22;26430;48.818;9.244;2023-05-16T14:55:20;14.10;99.90
2447;DHT22;26430;48.818;9.244;2023-05-16T14:57:46;14.00;99.90
2447;DHT22;26430;48.818;9.244;2023-05-16T15:00:14;14.00;99.90
2447;DHT22;26430;48.818;9.244;2023-05-16T15:02:40;14.00;99.90
2447;DHT22;26430;48.818;9.244;2023-05-16T15:05:05;14.20;99.90
2447;DHT22;26430;48.818;9.244;2023-05-16T15:07:31;14.20;99.90
2447;DHT22;26430;48.818;9.244;2023-05-16T15:09:57;14.30;99.90
2447;DHT22;26430;48.818;9.244;2023-05-16T15:12:22;14.30;99.90
2447;DHT22;26430;48.818;9.244;2023-05-16T15:14:48;14.20;99.90
2447;DHT22;26430;48.818;9.244;2023-05-16T15:17:13;14.30;99.90
2447;DHT22;26430;48.818;9.244;2023-05-16T15:19:39;14.20;99.90
2447;DHT22;26430;48.818;9.244;2023-05-16T15:22:04;14.30;99.90
2447;DHT22;26430;48.818;9.244;2023-05-16T15:24:32;14.30;99.90
2447;DHT22;26430;48.818;9.244;2023-05-16T15:26:58;14.30;99.90
2447;DHT22;26430;48.818;9.244;2023-05-16T15:29:24;14.30;99.90
2447;DHT22;26430;48.818;9.244;2023-05-16T15:31:50;14.30;99.90
2447;DHT22;26430;48.818;9.244;2023-05-16T15:34:16;14.30;99.90
2447;DHT22;26430;48.818;9.244;2023-05-16T15:36:41;14.50;99.90
2447;DHT22;26430;48.818;9.244;2023-05-16T15:39:07;14.50;99.90
2447;DHT22;26430;48.818;9.244;2023-05-16T15:41:32;14.60;99.90
2447;DHT22;26430;48.818;9.244;2023-05-16T15:43:58;14.70;99.90
2447;DHT22;26430;48.818;9.244;2023-05-16T15:46:24;14.90;99.90
2447;DHT22;26430;48.818;9.244;2023-05-16T15:48:50;14.90;99.90
2447;DHT22;26430;48.818;9.244;2023-05-16T15:51:15;14.90;99.90
2447;DHT22;26430;48.818;9.244;2023-05-16T15:53:41;14.80;99.90
2447;DHT22;26430;48.818;9.244;2023-05-16T15:56:07;14.80;99.90
2447;DHT22;26430;48.818;9.244;2023-05-16T15:58:33;14.80;99.90
2447;DHT22;26430;48.818;9.244;2023-05-16T16:00:59;14.70;99.90
2447;DHT22;26430;48.818;9.244;2023-05-16T16:03:24;14.60;99.90
2447;DHT22;26430;48.818;9.244;2023-05-16T16:05:50;14.60;99.90
2447;DHT22;26430;48.818;9.244;2023-05-16T16:08:17;14.50;99.90
2447;DHT22;26430;48.818;9.244;2023-05-16T16:10:43;14.50;99.90
2447;DHT22;26430;48.818;9.244;2023-05-16T16:13:08;14.40;99.90
2447;DHT22;26430;48.818;9.244;2023-05-16T16:15:34;14.30;99.90
2447;DHT22;26430;48.818;9.244;2023-05-16T16:18:02;14.20;99.90
2447;DHT22;26430;48.818;9.244;2023-05-16T16:20:28;14.10;99.90